createdAt,value
2022-09-13T00:00:42.799Z,1.70
2022-09-13T00:03:11.102Z,1.65
2022-09-13T00:05:38.805Z,1.65
2022-09-13T00:08:05.993Z,1.83
2022-09-13T00:10:34.679Z,1.90
2022-09-13T00:13:01.885Z,2.00
2022-09-13T00:15:28.583Z,1.70
2022-09-13T00:17:55.194Z,1.90
2022-09-13T00:20:21.840Z,1.60
2022-09-13T00:22:48.343Z,1.98
2022-09-13T00:25:14.844Z,1.70
2022-09-13T00:27:41.434Z,1.73
2022-09-13T00:30:09.521Z,2.00
2022-09-13T00:32:36.260Z,1.90
2022-09-13T00:35:04.365Z,1.70
2022-09-13T00:37:31.244Z,1.58
2022-09-13T00:39:57.740Z,1.70
2022-09-13T00:42:34.924Z,1.90
2022-09-13T00:45:10.857Z,1.83
2022-09-13T00:47:41.378Z,1.52
2022-09-13T00:50:14.713Z,1.80
2022-09-13T00:52:46.579Z,1.60
2022-09-13T00:55:19.157Z,1.67
2022-09-13T00:57:45.857Z,1.98
2022-09-13T01:00:15.611Z,1.48
2022-09-13T01:02:47.362Z,1.80
2022-09-13T01:05:15.640Z,2.25
2022-09-13T01:07:42.436Z,1.58
2022-09-13T01:10:09.509Z,1.55
2022-09-13T01:12:48.583Z,1.98
2022-09-13T01:15:15.101Z,1.83
2022-09-13T01:17:42.253Z,1.70
2022-09-13T01:20:10.317Z,1.58
2022-09-13T01:22:47.579Z,1.52
2022-09-13T01:25:42.095Z,1.80
2022-09-13T01:28:46.939Z,1.80
2022-09-13T01:31:37.618Z,1.65
2022-09-13T01:34:31.173Z,1.90
2022-09-13T01:37:15.754Z,2.25
2022-09-13T01:40:02.883Z,1.95
2022-09-13T01:42:53.369Z,1.75
2022-09-13T01:45:42.877Z,2.00
2022-09-13T01:48:25.143Z,2.10
2022-09-13T01:51:05.009Z,2.20
2022-09-13T01:53:52.346Z,2.33
2022-09-13T01:56:27.651Z,2.28
2022-09-13T01:59:18.791Z,2.30
2022-09-13T02:02:21.000Z,2.00
2022-09-13T02:04:54.229Z,2.03
2022-09-13T02:07:34.141Z,2.35
2022-09-13T02:10:15.254Z,2.30
2022-09-13T02:12:42.984Z,2.40
2022-09-13T02:15:23.204Z,2.22
2022-09-13T02:17:54.831Z,2.20
2022-09-13T02:20:28.467Z,2.30
2022-09-13T02:22:58.507Z,2.60
2022-09-13T02:25:25.927Z,2.80
2022-09-13T02:27:58.921Z,2.50
2022-09-13T02:30:26.158Z,2.60
2022-09-13T02:33:06.471Z,2.45
2022-09-13T02:35:38.879Z,2.60
2022-09-13T02:38:12.011Z,2.58
2022-09-13T02:40:46.396Z,2.15
2022-09-13T02:43:21.436Z,2.22
2022-09-13T02:45:52.568Z,2.85
2022-09-13T02:48:54.355Z,2.60
2022-09-13T02:51:44.209Z,2.70
2022-09-13T02:54:19.141Z,2.47
2022-09-13T02:56:53.258Z,2.65
2022-09-13T02:59:21.087Z,2.55
2022-09-13T03:02:04.301Z,2.70
2022-09-13T03:04:30.979Z,2.55
2022-09-13T03:06:57.455Z,2.40
2022-09-13T03:09:24.286Z,2.75
2022-09-13T03:11:56.759Z,2.60
2022-09-13T03:14:43.264Z,2.60
2022-09-13T03:17:28.616Z,2.50
2022-09-13T03:20:10.927Z,3.08
2022-09-13T03:23:09.369Z,2.58
2022-09-13T03:26:10.418Z,2.92
2022-09-13T03:29:01.962Z,2.60
2022-09-13T03:31:34.240Z,2.45
2022-09-13T03:34:13.979Z,2.28
2022-09-13T03:36:55.779Z,2.15
2022-09-13T03:40:04.754Z,2.47
2022-09-13T03:42:40.698Z,3.55
2022-09-13T03:45:09.183Z,3.10
2022-09-13T03:47:37.116Z,2.58
2022-09-13T03:50:05.642Z,2.40
2022-09-13T03:52:32.201Z,2.80
2022-09-13T03:54:59.148Z,3.13
2022-09-13T03:57:25.626Z,2.78
2022-09-13T03:59:54.659Z,3.03
2022-09-13T04:02:23.410Z,2.47
2022-09-13T04:04:50.298Z,2.97
2022-09-13T04:07:19.624Z,3.13
2022-09-13T04:09:46.310Z,2.35
2022-09-13T04:12:14.416Z,2.80
2022-09-13T04:14:42.246Z,2.75
2022-09-13T04:17:09.052Z,3.25
2022-09-13T04:19:35.610Z,2.72
2022-09-13T04:22:02.522Z,3.22
2022-09-13T04:24:29.909Z,3.03
2022-09-13T04:26:56.583Z,3.13
2022-09-13T04:29:24.492Z,2.72
2022-09-13T04:31:52.526Z,2.90
2022-09-13T04:34:19.169Z,3.03
2022-09-13T04:36:47.804Z,3.45
2022-09-13T04:39:14.337Z,2.83
2022-09-13T04:41:48.880Z,3.63
2022-09-13T04:44:16.858Z,3.30
2022-09-13T04:46:44.035Z,3.30
2022-09-13T04:49:11.900Z,3.10
2022-09-13T04:51:38.435Z,4.07
2022-09-13T04:54:05.567Z,3.53
2022-09-13T04:56:32.117Z,3.88
2022-09-13T04:58:58.585Z,3.53
2022-09-13T05:01:27.938Z,3.72
2022-09-13T05:03:54.982Z,3.90
2022-09-13T05:06:21.641Z,3.80
2022-09-13T05:08:55.323Z,3.30
2022-09-13T05:11:23.348Z,3.55
2022-09-13T05:13:55.321Z,3.70
2022-09-13T05:16:26.827Z,3.58
2022-09-13T05:18:53.910Z,3.60
2022-09-13T05:21:20.873Z,4.25
2022-09-13T05:23:54.249Z,3.88
2022-09-13T05:26:22.535Z,3.67
2022-09-13T05:28:51.983Z,3.47
2022-09-13T05:31:28.307Z,3.97
2022-09-13T05:33:57.767Z,3.70
2022-09-13T05:36:24.761Z,3.58
2022-09-13T05:39:06.813Z,3.63
2022-09-13T05:41:40.103Z,3.60
2022-09-13T05:44:12.974Z,4.03
2022-09-13T05:46:40.336Z,3.97
2022-09-13T05:49:06.929Z,4.25
2022-09-13T05:51:33.515Z,4.82
2022-09-13T05:54:00.097Z,4.70
2022-09-13T05:56:28.869Z,4.70
2022-09-13T05:58:55.733Z,4.35
2022-09-13T06:01:27.647Z,4.97
2022-09-13T06:03:56.559Z,4.63
2022-09-13T06:06:24.124Z,4.30
2022-09-13T06:08:57.803Z,4.28
2022-09-13T06:11:25.696Z,5.55
2022-09-13T06:13:53.321Z,5.20
2022-09-13T06:16:20.052Z,5.13
2022-09-13T06:18:46.680Z,5.25
2022-09-13T06:21:18.752Z,5.82
2022-09-13T06:23:51.176Z,5.10
2022-09-13T06:26:19.704Z,5.43
2022-09-13T06:28:50.639Z,4.90
2022-09-13T06:31:19.467Z,6.00
2022-09-13T06:33:46.101Z,5.47
2022-09-13T06:36:18.275Z,5.88
2022-09-13T06:38:46.305Z,5.85
2022-09-13T06:41:15.385Z,5.75
2022-09-13T06:43:42.077Z,5.97
2022-09-13T06:46:10.899Z,6.18
2022-09-13T06:48:39.650Z,5.57
2022-09-13T06:51:13.881Z,5.63
2022-09-13T06:53:41.262Z,5.43
2022-09-13T06:56:10.876Z,6.13
2022-09-13T06:58:38.559Z,5.88
2022-09-13T07:01:10.315Z,5.72
2022-09-13T07:03:41.134Z,6.88
2022-09-13T07:06:19.104Z,7.03
2022-09-13T07:08:49.317Z,6.07
2022-09-13T07:11:18.435Z,7.13
2022-09-13T07:14:03.927Z,6.55
2022-09-13T07:16:32.369Z,6.45
2022-09-13T07:19:07.400Z,6.32
2022-09-13T07:21:35.050Z,6.78
2022-09-13T07:24:02.032Z,6.68
2022-09-13T07:26:28.647Z,6.90
2022-09-13T07:28:57.358Z,6.35
2022-09-13T07:31:32.261Z,6.25
2022-09-13T07:34:06.436Z,6.50
2022-09-13T07:36:34.905Z,6.85
2022-09-13T07:39:02.278Z,7.30
2022-09-13T07:41:30.035Z,7.00
2022-09-13T07:43:58.663Z,7.63
2022-09-13T07:46:26.773Z,7.18
2022-09-13T07:48:55.216Z,6.93
2022-09-13T07:51:24.051Z,6.95
2022-09-13T07:53:56.940Z,7.22
2022-09-13T07:56:31.686Z,6.82
2022-09-13T07:59:00.927Z,6.68
2022-09-13T08:01:47.626Z,7.05
2022-09-13T08:04:17.816Z,7.70
2022-09-13T08:06:44.714Z,7.25
2022-09-13T08:09:11.940Z,6.70
2022-09-13T08:11:57.031Z,7.10
2022-09-13T08:14:24.308Z,6.95
2022-09-13T08:16:51.385Z,6.38
2022-09-13T08:19:18.871Z,6.55
2022-09-13T08:21:45.885Z,6.65
2022-09-13T08:24:15.827Z,6.68
2022-09-13T08:26:42.357Z,6.93
2022-09-13T08:29:08.928Z,6.68
2022-09-13T08:31:35.496Z,7.10
2022-09-13T08:34:02.008Z,8.05
2022-09-13T08:36:29.399Z,6.03
2022-09-13T08:38:59.287Z,7.57
2022-09-13T08:41:25.831Z,6.97
2022-09-13T08:44:04.803Z,6.60
2022-09-13T08:46:49.653Z,6.85
2022-09-13T08:49:24.349Z,6.93
2022-09-13T08:51:56.875Z,7.47
2022-09-13T08:54:23.429Z,7.72
2022-09-13T08:57:10.319Z,6.95
2022-09-13T08:59:39.648Z,7.28
2022-09-13T09:02:13.180Z,7.05
2022-09-13T09:04:46.723Z,6.45
2022-09-13T09:07:28.070Z,6.43
2022-09-13T09:10:04.857Z,6.78
2022-09-13T09:12:44.689Z,6.70
2022-09-13T09:15:16.196Z,6.35
2022-09-13T09:17:49.066Z,6.35
2022-09-13T09:20:23.938Z,7.28
2022-09-13T09:22:52.458Z,6.32
2022-09-13T09:25:20.544Z,5.45
2022-09-13T09:27:47.048Z,5.45
2022-09-13T09:30:15.007Z,5.80
2022-09-13T09:32:41.470Z,5.68
2022-09-13T09:35:20.641Z,5.93
2022-09-13T09:38:19.547Z,5.13
2022-09-13T09:40:46.288Z,5.65
2022-09-13T09:43:24.894Z,4.97
2022-09-13T09:45:54.055Z,5.40
2022-09-13T09:48:24.864Z,5.07
2022-09-13T09:50:53.613Z,4.93
2022-09-13T09:53:37.137Z,4.88
2022-09-13T09:56:15.205Z,5.00
2022-09-13T09:58:43.915Z,4.82
2022-09-13T10:01:24.099Z,5.32
2022-09-13T10:03:54.236Z,4.38
2022-09-13T10:06:23.339Z,4.95
2022-09-13T10:09:01.896Z,4.80
2022-09-13T10:11:49.730Z,6.00
2022-09-13T10:14:34.865Z,6.00
2022-09-13T10:17:19.285Z,5.65
2022-09-13T10:20:01.473Z,5.20
2022-09-13T10:22:32.976Z,5.90
2022-09-13T10:25:21.862Z,6.50
2022-09-13T10:27:50.710Z,6.05
2022-09-13T10:30:33.285Z,6.22
2022-09-13T10:33:00.091Z,5.80
2022-09-13T10:35:27.146Z,6.32
2022-09-13T10:37:53.739Z,6.03
2022-09-13T10:40:27.741Z,5.88
2022-09-13T10:42:58.501Z,5.88
2022-09-13T10:45:27.429Z,5.88
2022-09-13T10:47:57.915Z,5.90
2022-09-13T10:50:29.707Z,5.82
2022-09-13T10:53:00.024Z,6.93
2022-09-13T10:55:31.496Z,7.00
2022-09-13T10:58:07.462Z,7.18
2022-09-13T11:00:35.837Z,6.47
2022-09-13T11:03:27.178Z,6.40
2022-09-13T11:06:12.201Z,6.35
2022-09-13T11:09:09.311Z,6.75
2022-09-13T11:11:46.181Z,6.55
2022-09-13T11:14:31.196Z,6.57
2022-09-13T11:17:16.095Z,5.90
2022-09-13T11:19:56.320Z,5.70
2022-09-13T11:22:51.227Z,5.80
2022-09-13T11:25:53.619Z,6.30
2022-09-13T11:28:45.222Z,6.20
2022-09-13T11:31:39.726Z,6.25
2022-09-13T11:34:06.358Z,6.15
2022-09-13T11:36:54.349Z,6.45
2022-09-13T11:39:32.516Z,6.30
2022-09-13T11:42:29.573Z,5.75
2022-09-13T11:45:22.336Z,6.93
2022-09-13T11:47:56.074Z,7.10
2022-09-13T11:50:47.201Z,6.68
2022-09-13T11:53:30.153Z,6.45
2022-09-13T11:56:20.142Z,7.60
2022-09-13T11:58:52.077Z,6.70
2022-09-13T12:01:24.868Z,6.90
2022-09-13T12:04:33.799Z,7.00
2022-09-13T12:07:03.595Z,7.13
2022-09-13T12:09:36.355Z,7.20
2022-09-13T12:12:08.133Z,8.02
2022-09-13T12:14:43.856Z,7.07
2022-09-13T12:17:21.898Z,7.43
2022-09-13T12:19:51.300Z,8.70
2022-09-13T12:22:18.322Z,8.45
2022-09-13T12:24:57.193Z,9.48
2022-09-13T12:27:29.371Z,9.45
2022-09-13T12:30:17.984Z,8.95
2022-09-13T12:32:47.522Z,8.35
2022-09-13T12:35:40.371Z,9.23
2022-09-13T12:38:40.455Z,7.68
2022-09-13T12:41:15.555Z,8.38
2022-09-13T12:43:49.651Z,7.80
2022-09-13T12:46:24.959Z,8.32
2022-09-13T12:48:54.572Z,7.95
2022-09-13T12:51:46.685Z,7.93
2022-09-13T12:54:50.915Z,7.88
2022-09-13T12:57:48.575Z,6.97
2022-09-13T13:00:19.830Z,7.68
2022-09-13T13:02:54.235Z,6.82
2022-09-13T13:05:29.292Z,7.97
2022-09-13T13:07:58.341Z,8.30
2022-09-13T13:10:30.710Z,8.10
2022-09-13T13:13:10.184Z,8.10
2022-09-13T13:15:36.632Z,7.68
2022-09-13T13:18:31.006Z,6.75
2022-09-13T13:20:57.468Z,7.15
2022-09-13T13:23:31.751Z,7.43
2022-09-13T13:26:11.907Z,6.03
2022-09-13T13:29:04.862Z,6.90
2022-09-13T13:31:31.359Z,6.55
2022-09-13T13:34:08.419Z,5.38
2022-09-13T13:36:41.031Z,5.40
2022-09-13T13:39:12.722Z,4.68
2022-09-13T13:41:43.997Z,5.00
2022-09-13T13:44:17.798Z,4.95
2022-09-13T13:46:44.874Z,4.97
2022-09-13T13:49:36.276Z,4.78
2022-09-13T13:52:11.550Z,4.97
2022-09-13T13:55:00.406Z,5.63
2022-09-13T13:57:31.854Z,5.10
2022-09-13T14:00:15.894Z,5.45
2022-09-13T14:02:54.128Z,5.63
2022-09-13T14:05:31.697Z,5.40
2022-09-13T14:08:29.364Z,5.57
2022-09-13T14:11:10.572Z,4.68
2022-09-13T14:13:40.114Z,4.68
2022-09-13T14:16:37.184Z,4.60
2022-09-13T14:19:24.183Z,4.32
2022-09-13T14:22:21.574Z,4.05
2022-09-13T14:24:53.535Z,4.07
2022-09-13T14:27:38.196Z,3.55
2022-09-13T14:30:22.234Z,3.08
2022-09-13T14:32:51.752Z,3.45
2022-09-13T14:35:27.121Z,3.85
2022-09-13T14:37:54.271Z,4.43
2022-09-13T14:40:25.303Z,4.05
2022-09-13T14:42:52.437Z,4.40
2022-09-13T14:45:27.826Z,4.32
2022-09-13T14:48:05.525Z,4.18
2022-09-13T14:50:34.732Z,4.70
2022-09-13T14:53:11.994Z,4.65
2022-09-13T14:55:52.418Z,4.53
2022-09-13T14:58:23.123Z,4.93
2022-09-13T15:01:01.376Z,5.50
2022-09-13T15:03:28.365Z,5.45
2022-09-13T15:05:57.373Z,6.63
2022-09-13T15:08:32.504Z,5.78
2022-09-13T15:11:12.826Z,6.13
2022-09-13T15:13:42.814Z,6.57
2022-09-13T15:16:26.387Z,7.05
2022-09-13T15:19:25.139Z,6.30
2022-09-13T15:21:51.639Z,5.93
2022-09-13T15:24:23.085Z,5.22
2022-09-13T15:26:49.681Z,5.93
2022-09-13T15:29:18.832Z,6.53
2022-09-13T15:31:45.393Z,5.75
2022-09-13T15:34:17.841Z,7.05
2022-09-13T15:37:12.625Z,6.65
2022-09-13T15:39:49.812Z,6.82
2022-09-13T15:42:17.531Z,6.45
2022-09-13T15:44:44.275Z,6.18
2022-09-13T15:47:16.166Z,5.63
2022-09-13T15:49:48.242Z,5.60
2022-09-13T15:52:14.747Z,4.93
2022-09-13T15:54:42.707Z,4.75
2022-09-13T15:57:17.699Z,4.45
2022-09-13T15:59:44.781Z,5.45
2022-09-13T16:02:20.877Z,4.78
2022-09-13T16:04:48.010Z,3.78
2022-09-13T16:07:15.103Z,4.00
2022-09-13T16:09:42.552Z,3.80
2022-09-13T16:12:09.095Z,3.80
2022-09-13T16:14:38.553Z,3.53
2022-09-13T16:17:07.630Z,4.18
2022-09-13T16:19:34.363Z,3.53
2022-09-13T16:22:00.910Z,3.95
2022-09-13T16:24:27.843Z,3.20
2022-09-13T16:26:54.583Z,3.58
2022-09-13T16:29:21.223Z,4.25
2022-09-13T16:31:47.742Z,3.88
2022-09-13T16:34:14.315Z,4.20
2022-09-13T16:36:40.960Z,3.88
2022-09-13T16:39:07.491Z,4.15
2022-09-13T16:41:34.168Z,4.25
2022-09-13T16:44:02.037Z,4.13
2022-09-13T16:46:28.793Z,4.47
2022-09-13T16:48:56.483Z,4.03
2022-09-13T16:51:23.831Z,4.40
2022-09-13T16:53:52.244Z,4.15
2022-09-13T16:56:22.453Z,4.55
2022-09-13T16:58:49.886Z,3.95
2022-09-13T17:01:20.044Z,3.97
2022-09-13T17:03:46.983Z,4.05
2022-09-13T17:06:15.275Z,3.65
2022-09-13T17:08:46.224Z,4.07
2022-09-13T17:11:14.747Z,3.85
2022-09-13T17:13:41.819Z,4.82
2022-09-13T17:16:39.051Z,3.72
2022-09-13T17:19:09.019Z,3.38
2022-09-13T17:21:35.867Z,3.28
2022-09-13T17:24:03.038Z,2.85
2022-09-13T17:26:30.021Z,3.05
2022-09-13T17:28:56.614Z,3.05
2022-09-13T17:31:23.421Z,2.90
2022-09-13T17:33:50.387Z,2.65
2022-09-13T17:36:17.331Z,2.95
2022-09-13T17:38:44.279Z,3.28
2022-09-13T17:41:18.539Z,2.45
2022-09-13T17:43:46.586Z,2.90
2022-09-13T17:46:18.932Z,2.38
2022-09-13T17:48:45.415Z,3.05
2022-09-13T17:51:14.135Z,2.97
2022-09-13T17:53:52.280Z,3.33
2022-09-13T17:56:23.663Z,2.58
2022-09-13T17:58:50.115Z,2.95
2022-09-13T18:01:16.904Z,2.38
2022-09-13T18:03:43.818Z,3.88
2022-09-13T18:06:11.861Z,2.70
2022-09-13T18:08:39.357Z,2.42
2022-09-13T18:11:13.522Z,2.33
2022-09-13T18:13:42.068Z,2.30
2022-09-13T18:16:20.058Z,2.00
2022-09-13T18:18:48.073Z,1.77
2022-09-13T18:21:16.860Z,2.80
2022-09-13T18:23:43.399Z,2.17
2022-09-13T18:26:14.967Z,1.88
2022-09-13T18:28:43.368Z,2.10
2022-09-13T18:31:14.317Z,2.05
2022-09-13T18:33:40.905Z,2.28
2022-09-13T18:36:09.998Z,2.40
2022-09-13T18:38:43.706Z,2.42
2022-09-13T18:41:13.115Z,2.25
2022-09-13T18:43:40.695Z,2.38
2022-09-13T18:46:10.333Z,1.90
2022-09-13T18:48:39.325Z,2.63
2022-09-13T18:51:06.328Z,2.47
2022-09-13T18:53:35.117Z,2.10
2022-09-13T18:56:03.410Z,2.33
2022-09-13T18:58:31.349Z,2.65
2022-09-13T19:01:03.211Z,2.17
2022-09-13T19:03:32.136Z,1.98
2022-09-13T19:06:13.554Z,2.70
2022-09-13T19:08:40.640Z,3.13
2022-09-13T19:11:15.580Z,2.95
2022-09-13T19:13:54.355Z,2.60
2022-09-13T19:16:21.401Z,2.60
2022-09-13T19:18:51.560Z,2.85
2022-09-13T19:21:22.830Z,2.80
2022-09-13T19:23:59.381Z,2.38
2022-09-13T19:26:37.225Z,2.33
2022-09-13T19:29:20.159Z,2.97
2022-09-13T19:31:48.474Z,3.35
2022-09-13T19:34:17.514Z,2.85
2022-09-13T19:36:44.533Z,3.08
2022-09-13T19:39:11.576Z,2.92
2022-09-13T19:41:39.221Z,3.35
2022-09-13T19:44:06.061Z,3.13
2022-09-13T19:46:39.344Z,3.00
2022-09-13T19:49:08.245Z,3.10
2022-09-13T19:51:36.857Z,3.03
2022-09-13T19:54:04.670Z,2.85
2022-09-13T19:56:33.334Z,2.47
2022-09-13T19:59:01.205Z,2.75
2022-09-13T20:01:33.639Z,2.58
2022-09-13T20:04:02.644Z,2.90
2022-09-13T20:06:37.166Z,2.67
2022-09-13T20:09:04.287Z,2.53
2022-09-13T20:11:31.924Z,2.20
2022-09-13T20:13:59.552Z,2.50
2022-09-13T20:16:28.625Z,2.10
2022-09-13T20:18:57.292Z,2.28
2022-09-13T20:21:25.163Z,2.40
2022-09-13T20:23:54.755Z,1.95
2022-09-13T20:26:24.774Z,2.05
2022-09-13T20:28:54.921Z,2.10
2022-09-13T20:31:21.661Z,2.10
2022-09-13T20:33:48.256Z,1.90
2022-09-13T20:36:15.567Z,1.80
2022-09-13T20:38:42.424Z,1.92
2022-09-13T20:41:13.525Z,1.90
2022-09-13T20:43:41.528Z,1.50
2022-09-13T20:46:10.622Z,1.73
2022-09-13T20:48:37.127Z,2.10
2022-09-13T20:51:05.874Z,1.60
2022-09-13T20:53:33.357Z,1.63
2022-09-13T20:56:08.472Z,2.15
2022-09-13T20:58:35.777Z,1.73
2022-09-13T21:01:07.268Z,1.90
2022-09-13T21:03:38.859Z,2.03
2022-09-13T21:06:06.494Z,2.10
2022-09-13T21:08:41.649Z,1.52
2022-09-13T21:11:30.446Z,2.03
2022-09-13T21:14:05.319Z,1.40
2022-09-13T21:16:34.518Z,1.92
2022-09-13T21:19:01.257Z,1.77
2022-09-13T21:21:30.222Z,1.88
2022-09-13T21:23:57.580Z,1.52
2022-09-13T21:26:30.079Z,1.27
2022-09-13T21:28:57.641Z,1.88
2022-09-13T21:31:30.012Z,2.20
2022-09-13T21:33:58.903Z,1.80
2022-09-13T21:36:26.311Z,1.48
2022-09-13T21:38:54.597Z,2.10
2022-09-13T21:41:21.688Z,1.75
2022-09-13T21:43:48.501Z,1.90
2022-09-13T21:46:17.681Z,1.95
2022-09-13T21:48:46.100Z,1.70
2022-09-13T21:51:15.299Z,1.50
2022-09-13T21:53:41.796Z,1.40
2022-09-13T21:56:10.447Z,1.38
2022-09-13T21:58:37.820Z,2.13
2022-09-13T22:01:12.241Z,1.65
2022-09-13T22:03:40.602Z,2.03
2022-09-13T22:06:08.291Z,2.00
2022-09-13T22:08:37.725Z,1.67
2022-09-13T22:11:10.437Z,1.50
2022-09-13T22:13:45.339Z,1.55
2022-09-13T22:16:25.973Z,1.20
2022-09-13T22:18:57.612Z,2.10
2022-09-13T22:21:27.322Z,1.40
2022-09-13T22:23:54.116Z,1.75
2022-09-13T22:26:23.761Z,1.63
2022-09-13T22:28:51.157Z,1.23
2022-09-13T22:31:23.727Z,1.30
2022-09-13T22:33:51.281Z,1.42
2022-09-13T22:36:18.481Z,1.80
2022-09-13T22:38:46.425Z,1.83
2022-09-13T22:41:20.314Z,1.58
2022-09-13T22:43:47.527Z,1.77
2022-09-13T22:46:15.424Z,1.45
2022-09-13T22:48:42.522Z,1.52
2022-09-13T22:51:10.990Z,1.90
2022-09-13T22:53:38.691Z,3.60
2022-09-13T22:56:07.350Z,1.20
2022-09-13T22:58:34.317Z,1.90
2022-09-13T23:01:09.274Z,2.35
2022-09-13T23:03:37.509Z,1.67
2022-09-13T23:06:11.680Z,1.77
2022-09-13T23:08:38.775Z,1.23
2022-09-13T23:11:13.174Z,1.45
2022-09-13T23:13:40.172Z,1.33
2022-09-13T23:16:08.891Z,1.60
2022-09-13T23:18:35.874Z,1.30
2022-09-13T23:21:02.631Z,2.08
2022-09-13T23:23:30.266Z,1.25
2022-09-13T23:26:03.983Z,1.17
2022-09-13T23:28:31.117Z,1.00
2022-09-13T23:31:07.860Z,1.17
2022-09-13T23:33:34.627Z,1.00
2022-09-13T23:36:01.562Z,1.17
2022-09-13T23:38:28.196Z,1.40
2022-09-13T23:40:58.427Z,1.20
2022-09-13T23:43:25.374Z,1.15
2022-09-13T23:45:52.024Z,1.20
2022-09-13T23:48:18.591Z,1.08
2022-09-13T23:50:45.797Z,1.20
2022-09-13T23:53:12.496Z,1.02
2022-09-13T23:55:39.177Z,1.42
2022-09-13T23:58:05.753Z,1.27
